Main page
METAR-TAF:

METAR-TAF

Airports :

Wiener Neustadt East Airport

Wiener Neustadt, Austria

latitude: 47-50-36N, longitude: 016-15-29E, elevation: 272 m

Current weather observation

The report was made 7 hours and 41 minutes ago, at 18:00 UTC
Wind 5 kt from the West/Northwest
Temperature
Pressure

METAR: LOAN 141800Z 30005KT 40KM FEW045CU SCT080AC BKN170AC

Time: 03:41 (01:41 UTC)

Forecast

The report was made 10 hours and 25 minutes ago, at 15:16 UTC
Forecast valid from 14 at 15 UTC to 14 at 21 UTC
Wind 8 kt from the West/Southwest
Visibility 10 km or more
Few clouds at a height of 5000 ft
Broken clouds at a height of 7000 ft
Probability 40% :
Temporary
from 14 at 15 UTC to 14 at 18 UTC
Wind 15 kt from the Northwest with gusts up to 25 kt
Broken clouds at a height of 4000 ft
Scattered clouds at a height of 5000 ft, Towering cumulus.
rain showers

TAF: LOAN 141516Z 1415/1421 25008KT 9999 FEW050 BKN070 PROB40 TEMPO 1415/1418 31015G25KT SHRA BKN040 SCT050TCU

Weather observations and forecasts of more than 4000 airports (METAR and TAF reports).

The available stations are represented by yellow and red dots on the map.

Hover mouse over dot to see the name of the station.

Then click to see weather observations and forecasts.

To change the map : click on the green buttons with a black cross to zoom in, on the green button with a dash to zoom out, or on the green arrows for adjacent maps.


METAR-TAF: